Time;durP1;ratioP1;P1;durP2;ratioP2;P2;SDS_P1;SDS_P2;PMS_P1;PMS_P2;Temp;Humidity;BMP_temperature;BMP_pressure;BME280_temperature;BME280_humidity;BME280_pressure;Samples;Min_cycle;Max_cycle;Signal;HPM_P1;HPM_P2
2023/12/24 00:01:15;;;;;;;10.80;4.00;;;-1.10;99.90;;;;;;5029293;28;20565;-89
2023/12/24 00:03:43;;;;;;;11.25;4.07;;;-1.10;99.90;;;;;;5029231;28;21031;-88
2023/12/24 00:06:11;;;;;;;10.93;4.22;;;-1.20;99.90;;;;;;5030762;28;20188;-88
2023/12/24 00:08:38;;;;;;;13.00;4.35;;;-1.10;99.90;;;;;;5031055;28;20190;-88
2023/12/24 00:11:06;;;;;;;10.30;4.47;;;-1.10;99.90;;;;;;5029198;28;20244;-86
2023/12/24 00:13:34;;;;;;;11.15;4.43;;;-1.10;99.90;;;;;;5030624;28;20170;-89
2023/12/24 00:16:01;;;;;;;9.52;4.07;;;-1.10;99.90;;;;;;5029288;28;20578;-87
2023/12/24 00:18:29;;;;;;;8.32;3.72;;;-1.10;99.90;;;;;;5029470;28;20182;-88
2023/12/24 00:20:56;;;;;;;7.18;4.65;;;-1.00;99.90;;;;;;5029173;28;20668;-85
2023/12/24 00:23:24;;;;;;;16.48;5.40;;;-1.00;99.90;;;;;;5045663;28;20240;-85
2023/12/24 00:25:51;;;;;;;10.93;4.30;;;-1.00;99.90;;;;;;5012775;28;20285;-85
2023/12/24 00:28:19;;;;;;;11.15;4.60;;;-1.00;99.90;;;;;;5028889;28;20182;-87
2023/12/24 00:30:46;;;;;;;15.25;4.35;;;-1.10;99.90;;;;;;5028972;28;20213;-88
2023/12/24 00:33:14;;;;;;;10.77;4.65;;;-1.10;99.90;;;;;;5030223;28;20256;-84
2023/12/24 00:35:41;;;;;;;11.27;4.50;;;-1.00;99.90;;;;;;5048724;28;20783;-87
2023/12/24 00:38:09;;;;;;;11.93;4.75;;;-1.00;99.90;;;;;;5048656;28;20190;-88
2023/12/24 00:40:38;;;;;;;11.05;5.43;;;-1.10;99.90;;;;;;5048715;28;20276;-87
2023/12/24 00:43:05;;;;;;;9.90;4.80;;;-1.00;99.90;;;;;;5050127;28;20561;-88
2023/12/24 00:45:34;;;;;;;11.88;4.72;;;-1.10;99.90;;;;;;5065024;28;20209;-87
2023/12/24 00:48:02;;;;;;;13.15;4.43;;;-1.10;99.90;;;;;;5048554;28;20201;-86
2023/12/24 00:50:30;;;;;;;10.93;4.88;;;-1.00;99.90;;;;;;5049967;28;20259;-87
2023/12/24 00:52:58;;;;;;;12.40;4.53;;;-1.10;99.90;;;;;;5065428;28;20194;-88
2023/12/24 00:55:25;;;;;;;11.15;5.47;;;-1.10;99.90;;;;;;5049926;28;20189;-87
2023/12/24 00:57:53;;;;;;;12.18;4.35;;;-1.10;99.90;;;;;;5049811;28;20260;-87
2023/12/24 01:00:20;;;;;;;14.82;5.07;;;-1.10;99.90;;;;;;5049744;28;20182;-87
2023/12/24 01:02:50;;;;;;;11.43;4.20;;;-1.10;99.90;;;;;;5048176;28;20219;-87
2023/12/24 01:05:18;;;;;;;10.25;3.83;;;-1.10;99.90;;;;;;5048233;28;20251;-86
2023/12/24 01:07:46;;;;;;;10.88;4.40;;;-1.10;99.90;;;;;;5048121;28;20205;-88
2023/12/24 01:10:13;;;;;;;11.27;4.03;;;-1.10;99.90;;;;;;5048548;28;20209;-87
2023/12/24 01:12:42;;;;;;;8.65;3.92;;;-1.20;99.90;;;;;;5049736;28;20221;-87
2023/12/24 01:15:09;;;;;;;8.00;4.10;;;-1.20;99.90;;;;;;5048472;28;20217;-88
2023/12/24 01:17:37;;;;;;;12.05;4.25;;;-1.20;99.90;;;;;;5049607;28;20590;-88
2023/12/24 01:20:15;;;;;;;10.02;3.88;;;-1.20;99.90;;;;;;5047999;28;20193;-88
2023/12/24 01:22:43;;;;;;;12.80;4.35;;;-1.10;99.90;;;;;;5064685;28;20179;-86
2023/12/24 01:25:11;;;;;;;9.25;4.03;;;-1.10;99.90;;;;;;5047973;28;20196;-88
2023/12/24 01:27:39;;;;;;;10.75;4.20;;;-1.20;99.90;;;;;;5064565;28;20192;-88
2023/12/24 01:30:08;;;;;;;8.77;3.78;;;-1.10;99.90;;;;;;5064319;28;20197;-87
2023/12/24 01:32:35;;;;;;;8.30;4.30;;;-1.10;99.90;;;;;;5049291;28;20181;-86
2023/12/24 01:35:03;;;;;;;10.43;3.97;;;-1.10;99.90;;;;;;5047958;28;20185;-87
2023/12/24 01:37:31;;;;;;;12.38;4.25;;;-1.10;99.90;;;;;;5044185;28;20369;-88
2023/12/24 01:39:59;;;;;;;9.23;3.80;;;-1.00;99.90;;;;;;5029451;28;20256;-87
2023/12/24 01:42:26;;;;;;;13.27;4.22;;;-1.10;99.90;;;;;;5029378;28;20193;-87
2023/12/24 01:44:54;;;;;;;10.40;4.18;;;-1.10;99.90;;;;;;5029208;28;20209;-86
2023/12/24 01:47:22;;;;;;;14.35;4.68;;;-1.10;99.90;;;;;;5044627;28;20241;-87
2023/12/24 01:49:50;;;;;;;11.35;4.40;;;-1.10;99.90;;;;;;5029206;28;20209;-87
2023/12/24 01:52:18;;;;;;;14.35;3.85;;;-1.10;99.90;;;;;;5029227;28;20201;-86
2023/12/24 01:54:48;;;;;;;10.45;4.05;;;-1.10;99.90;;;;;;5044469;28;20197;-87
2023/12/24 01:57:18;;;;;;;9.80;3.47;;;-1.20;99.90;;;;;;5029443;28;20232;-86
2023/12/24 01:59:45;;;;;;;12.15;4.03;;;-1.10;99.90;;;;;;5028049;28;20190;-86
2023/12/24 02:02:13;;;;;;;11.13;4.13;;;-1.10;99.90;;;;;;5011516;28;20198;-86
2023/12/24 02:04:42;;;;;;;9.25;3.35;;;-1.20;99.90;;;;;;5044377;28;20205;-87
2023/12/24 02:07:11;;;;;;;8.85;3.55;;;-1.20;99.90;;;;;;5027638;28;20561;-87
2023/12/24 02:09:41;;;;;;;9.27;3.72;;;-1.20;99.90;;;;;;5028945;28;20647;-87
2023/12/24 02:12:09;;;;;;;9.27;4.03;;;-1.20;99.90;;;;;;5028832;28;20226;-88
2023/12/24 02:14:37;;;;;;;12.18;3.83;;;-1.20;99.90;;;;;;5027661;28;20667;-86
2023/12/24 02:17:05;;;;;;;6.72;3.22;;;-1.20;99.90;;;;;;5029110;28;20265;-87
2023/12/24 02:19:33;;;;;;;10.23;3.95;;;-1.20;99.90;;;;;;5027866;28;20275;-88
2023/12/24 02:22:01;;;;;;;8.90;3.90;;;-1.20;99.90;;;;;;5048192;28;20198;-87
2023/12/24 02:24:28;;;;;;;11.52;3.55;;;-1.30;99.90;;;;;;5015025;28;20206;-87
2023/12/24 02:27:17;;;;;;;9.38;3.38;;;-1.30;99.90;;;;;;5047974;28;20278;-86
2023/12/24 02:29:49;;;;;;;11.68;4.00;;;-1.30;99.90;;;;;;5032725;28;20189;-85
2023/12/24 02:32:19;;;;;;;9.02;3.60;;;-1.40;99.90;;;;;;5032763;28;20296;-87
2023/12/24 02:34:48;;;;;;;11.18;3.85;;;-1.50;99.90;;;;;;5048118;28;20268;-86
2023/12/24 02:37:16;;;;;;;11.88;3.67;;;-1.40;99.90;;;;;;5032810;28;20193;-86
2023/12/24 02:39:45;;;;;;;10.85;3.70;;;-1.40;99.90;;;;;;5049071;28;20193;-87
2023/12/24 02:42:13;;;;;;;11.57;4.07;;;-1.30;99.90;;;;;;5032398;28;20189;-87
2023/12/24 02:44:42;;;;;;;12.52;3.42;;;-1.30;99.90;;;;;;5030723;28;20197;-87
2023/12/24 02:47:10;;;;;;;7.00;3.58;;;-1.30;99.90;;;;;;5047240;28;20601;-87
2023/12/24 02:49:38;;;;;;;11.02;3.78;;;-1.30;99.90;;;;;;5047243;28;20193;-87
2023/12/24 02:52:05;;;;;;;9.88;3.72;;;-1.30;99.90;;;;;;5047234;28;20757;-87
2023/12/24 02:54:33;;;;;;;8.27;3.63;;;-1.40;99.90;;;;;;5030794;28;20590;-87
2023/12/24 02:57:00;;;;;;;11.20;3.85;;;-1.50;99.90;;;;;;5031963;28;20602;-87
2023/12/24 02:59:28;;;;;;;11.43;3.78;;;-1.50;99.90;;;;;;5047158;28;20304;-86
2023/12/24 03:01:55;;;;;;;12.93;3.55;;;-1.40;99.90;;;;;;5030571;28;20205;-87
2023/12/24 03:04:23;;;;;;;10.45;4.25;;;-1.30;99.90;;;;;;5032327;28;20186;-87
2023/12/24 03:06:51;;;;;;;7.25;3.63;;;-1.30;99.90;;;;;;5032368;28;20182;-86
2023/12/24 03:09:18;;;;;;;8.75;3.70;;;-1.40;99.90;;;;;;5047835;28;20678;-88
2023/12/24 03:11:46;;;;;;;12.07;4.03;;;-1.40;99.90;;;;;;5046804;28;20597;-86
2023/12/24 03:14:13;;;;;;;7.95;4.05;;;-1.30;99.90;;;;;;5031887;28;20184;-88
2023/12/24 03:16:41;;;;;;;8.65;3.50;;;-1.30;99.90;;;;;;5047035;28;20200;-87
2023/12/24 03:19:09;;;;;;;12.68;3.53;;;-1.40;99.90;;;;;;5030576;28;20244;-88
2023/12/24 03:21:42;;;;;;;10.20;3.83;;;-1.50;99.90;;;;;;5031550;28;20281;-88
2023/12/24 03:24:10;;;;;;;11.82;3.65;;;-1.40;99.90;;;;;;5046782;28;20193;-86
2023/12/24 03:26:37;;;;;;;9.45;3.47;;;-1.40;99.90;;;;;;5047019;28;20190;-87
2023/12/24 03:29:09;;;;;;;10.32;3.70;;;-1.40;99.90;;;;;;5046775;28;20194;-88
2023/12/24 03:31:37;;;;;;;7.93;3.00;;;-1.40;99.90;;;;;;5030369;28;20200;-86
2023/12/24 03:34:04;;;;;;;10.25;3.90;;;-1.40;99.90;;;;;;5031500;28;20261;-87
2023/12/24 03:36:32;;;;;;;9.05;3.85;;;-1.40;99.90;;;;;;5046730;28;20190;-86
2023/12/24 03:39:00;;;;;;;13.73;3.78;;;-1.40;99.90;;;;;;5046497;28;20528;-86
2023/12/24 03:41:27;;;;;;;15.80;3.47;;;-1.50;99.90;;;;;;5046536;28;20194;-87
2023/12/24 03:43:55;;;;;;;11.98;2.92;;;-1.40;99.90;;;;;;5046535;28;20920;-87
2023/12/24 03:46:22;;;;;;;11.55;3.97;;;-1.70;99.90;;;;;;5046359;28;20273;-86
2023/12/24 03:48:50;;;;;;;12.82;3.67;;;-1.70;99.90;;;;;;5013562;28;20202;-86
2023/12/24 03:51:18;;;;;;;12.15;3.53;;;-1.60;99.90;;;;;;5031230;28;20693;-88
2023/12/24 03:53:46;;;;;;;13.35;3.95;;;-1.70;99.90;;;;;;5046576;28;20205;-87
2023/12/24 03:56:13;;;;;;;9.38;3.42;;;-1.60;99.90;;;;;;5029884;28;20182;-89
2023/12/24 03:58:41;;;;;;;8.55;3.38;;;-1.60;99.90;;;;;;5046115;28;20193;-85
2023/12/24 04:01:09;;;;;;;8.57;3.78;;;-1.60;99.90;;;;;;5030661;28;20190;-87
2023/12/24 04:03:37;;;;;;;10.50;3.80;;;-1.60;99.90;;;;;;5030812;28;20266;-87
2023/12/24 04:06:16;;;;;;;11.70;4.07;;;-1.60;99.90;;;;;;5029347;28;20193;-87
2023/12/24 04:08:44;;;;;;;9.88;3.55;;;-1.60;99.90;;;;;;5046010;28;20182;-87
2023/12/24 04:11:12;;;;;;;7.97;3.40;;;-1.60;99.90;;;;;;5029443;28;20288;-87
2023/12/24 04:13:40;;;;;;;10.70;4.00;;;-1.60;99.90;;;;;;5029781;28;20197;-86
2023/12/24 04:16:08;;;;;;;10.25;3.22;;;-1.60;99.90;;;;;;5030627;28;20206;-86
2023/12/24 04:18:36;;;;;;;12.02;3.63;;;-1.70;99.90;;;;;;5045882;28;20216;-86
2023/12/24 04:21:04;;;;;;;10.27;3.70;;;-1.80;99.90;;;;;;5030496;28;20190;-87
2023/12/24 04:23:32;;;;;;;9.90;3.47;;;-1.80;99.90;;;;;;5045668;28;20200;-86
2023/12/24 04:26:00;;;;;;;8.02;3.85;;;-1.70;99.90;;;;;;5030479;28;20269;-88
2023/12/24 04:28:27;;;;;;;6.10;3.15;;;-1.70;99.90;;;;;;5045792;28;20205;-87
2023/12/24 04:30:55;;;;;;;10.38;3.83;;;-1.70;99.90;;;;;;5045633;28;20197;-88
2023/12/24 04:33:23;;;;;;;15.63;3.85;;;-1.70;99.90;;;;;;5045792;28;20633;-87
2023/12/24 04:35:51;;;;;;;9.10;3.13;;;-1.70;99.90;;;;;;5045469;28;20644;-87
2023/12/24 04:38:19;;;;;;;11.52;3.50;;;-1.60;99.90;;;;;;5045507;28;20582;-87
2023/12/24 04:40:47;;;;;;;8.45;3.17;;;-1.60;99.90;;;;;;5028777;28;20341;-86
2023/12/24 04:43:15;;;;;;;7.78;3.22;;;-1.80;99.90;;;;;;5045169;28;20266;-89
2023/12/24 04:45:42;;;;;;;11.82;4.00;;;-1.90;99.90;;;;;;5028522;28;20667;-86
2023/12/24 04:48:10;;;;;;;7.40;2.85;;;-1.80;99.90;;;;;;5045177;28;20324;-87
2023/12/24 04:50:38;;;;;;;7.50;3.85;;;-1.80;99.90;;;;;;5045270;28;20186;-87
2023/12/24 04:53:06;;;;;;;12.63;3.67;;;-1.80;99.90;;;;;;5045121;28;20221;-87
2023/12/24 04:55:35;;;;;;;12.35;3.78;;;-1.80;99.90;;;;;;5045260;28;20600;-88
2023/12/24 04:58:02;;;;;;;8.55;3.53;;;-1.90;99.90;;;;;;5030129;28;20193;-87
2023/12/24 05:00:30;;;;;;;12.90;3.65;;;-2.00;99.90;;;;;;5045157;28;20586;-86
2023/12/24 05:02:58;;;;;;;7.60;2.97;;;-1.90;99.90;;;;;;5045016;28;20263;-87
2023/12/24 05:05:26;;;;;;;9.85;3.70;;;-1.90;99.90;;;;;;5045055;28;20201;-88
2023/12/24 05:07:53;;;;;;;7.63;3.22;;;-2.00;99.90;;;;;;5029519;28;20217;-86
2023/12/24 05:10:21;;;;;;;10.82;3.53;;;-1.90;99.90;;;;;;5045148;28;20280;-87
2023/12/24 05:12:49;;;;;;;8.27;2.70;;;-1.90;99.90;;;;;;5044710;28;20236;-87
2023/12/24 05:15:18;;;;;;;7.28;3.25;;;-1.90;99.90;;;;;;5029813;28;20602;-86
2023/12/24 05:17:45;;;;;;;6.38;2.55;;;-1.90;99.90;;;;;;5028462;28;20193;-87
2023/12/24 05:20:14;;;;;;;8.18;3.63;;;-1.90;99.90;;;;;;5045028;28;20224;-86
2023/12/24 05:22:42;;;;;;;6.03;2.97;;;-1.90;99.90;;;;;;5029681;28;20182;-87
2023/12/24 05:25:09;;;;;;;8.57;2.67;;;-1.90;99.90;;;;;;5045058;28;20225;-86
2023/12/24 05:27:38;;;;;;;6.63;3.15;;;-2.00;99.90;;;;;;5029644;28;20192;-86
2023/12/24 05:30:07;;;;;;;8.07;3.20;;;-2.10;99.90;;;;;;5028856;28;20277;-87
2023/12/24 05:32:34;;;;;;;7.60;3.08;;;-2.10;99.90;;;;;;5044729;28;20216;-87
2023/12/24 05:35:02;;;;;;;10.68;3.20;;;-2.20;99.90;;;;;;5029438;28;20185;-87
2023/12/24 05:37:30;;;;;;;5.55;2.42;;;-2.20;99.90;;;;;;5028075;28;20571;-85
2023/12/24 05:39:57;;;;;;;9.95;3.75;;;-2.30;99.90;;;;;;5044740;28;20572;-86
2023/12/24 05:42:25;;;;;;;9.05;3.35;;;-2.40;99.90;;;;;;5029570;28;20189;-87
2023/12/24 05:44:52;;;;;;;9.80;2.95;;;-2.40;99.90;;;;;;5044854;28;20687;-86
2023/12/24 05:47:19;;;;;;;10.00;2.67;;;-2.40;99.90;;;;;;5029331;28;20190;-87
2023/12/24 05:49:47;;;;;;;8.35;3.33;;;-2.20;99.90;;;;;;5028094;28;20217;-86
2023/12/24 05:52:14;;;;;;;8.25;3.13;;;-2.30;99.90;;;;;;5029063;28;20285;-86
2023/12/24 05:54:42;;;;;;;9.50;3.28;;;-2.30;99.90;;;;;;5044579;28;20251;-87
2023/12/24 05:57:09;;;;;;;12.52;3.22;;;-2.30;99.90;;;;;;5048387;28;20194;-86
2023/12/24 05:59:37;;;;;;;6.60;2.83;;;-2.30;99.90;;;;;;5048320;28;20551;-86
2023/12/24 06:02:04;;;;;;;9.73;3.10;;;-2.40;99.90;;;;;;5048473;28;20252;-88
2023/12/24 06:04:32;;;;;;;8.77;2.67;;;-2.40;99.90;;;;;;5033341;28;20182;-87
2023/12/24 06:07:01;;;;;;;10.68;3.40;;;-2.30;99.90;;;;;;5048250;28;20198;-88
2023/12/24 06:09:28;;;;;;;9.02;3.13;;;-2.30;99.90;;;;;;5031742;28;20282;-85
2023/12/24 06:11:56;;;;;;;10.55;3.38;;;-2.30;99.90;;;;;;5047771;28;20232;-86
2023/12/24 06:14:24;;;;;;;11.13;3.38;;;-2.30;99.90;;;;;;5032785;28;20208;-85
2023/12/24 06:16:51;;;;;;;6.47;2.85;;;-2.30;99.90;;;;;;5047839;28;20550;-85
2023/12/24 06:19:19;;;;;;;7.85;2.90;;;-2.20;99.90;;;;;;5032720;28;20186;-87
2023/12/24 06:21:47;;;;;;;7.80;3.35;;;-2.20;99.90;;;;;;5048038;28;20194;-87
2023/12/24 06:24:19;;;;;;;9.57;3.83;;;-2.20;99.90;;;;;;5048153;28;20265;-87
2023/12/24 06:26:50;;;;;;;8.65;2.83;;;-2.20;99.90;;;;;;5048175;28;20860;-87
2023/12/24 06:29:20;;;;;;;7.47;3.08;;;-2.20;99.90;;;;;;5032521;28;20680;-87
2023/12/24 06:31:48;;;;;;;11.32;4.00;;;-2.10;99.90;;;;;;5047772;28;20918;-87
2023/12/24 06:34:15;;;;;;;9.85;3.78;;;-2.20;99.90;;;;;;5060733;28;20281;-86
2023/12/24 06:36:43;;;;;;;10.25;3.53;;;-2.20;99.90;;;;;;5031329;28;20190;-88
2023/12/24 06:39:11;;;;;;;7.72;2.97;;;-2.20;99.90;;;;;;5032400;28;20743;-85
2023/12/24 06:41:39;;;;;;;11.27;3.78;;;-2.20;99.90;;;;;;5033639;28;20204;-87
2023/12/24 06:44:08;;;;;;;12.60;3.65;;;-2.20;99.90;;;;;;5045892;28;20984;-86
2023/12/24 06:46:36;;;;;;;8.15;3.47;;;-2.20;99.90;;;;;;5047756;28;20194;-86
2023/12/24 06:49:03;;;;;;;10.43;3.50;;;-2.20;99.90;;;;;;5032293;28;20594;-86
2023/12/24 06:51:31;;;;;;;11.77;4.07;;;-2.10;99.90;;;;;;5051578;28;20189;-86
2023/12/24 06:53:58;;;;;;;9.18;3.53;;;-2.20;99.90;;;;;;5052074;28;20177;-86
2023/12/24 06:56:26;;;;;;;14.30;3.55;;;-2.20;99.90;;;;;;5052098;28;20200;-84
2023/12/24 06:58:53;;;;;;;9.73;3.60;;;-2.20;99.90;;;;;;5042275;28;20197;-87
2023/12/24 07:01:21;;;;;;;8.45;3.55;;;-2.10;99.90;;;;;;5032641;28;20286;-86
2023/12/24 07:03:48;;;;;;;10.85;3.95;;;-2.10;99.90;;;;;;5051923;28;20209;-87
2023/12/24 07:06:16;;;;;;;8.55;3.40;;;-2.10;99.90;;;;;;5050275;28;20193;-87
2023/12/24 07:08:44;;;;;;;10.30;3.53;;;-2.10;99.90;;;;;;5040529;28;20674;-87
2023/12/24 07:11:13;;;;;;;7.75;3.08;;;-2.00;99.90;;;;;;5034584;28;20772;-84
2023/12/24 07:13:40;;;;;;;9.20;3.65;;;-2.10;99.90;;;;;;5041196;28;20671;-84
2023/12/24 07:16:08;;;;;;;5.28;2.65;;;-2.00;99.90;;;;;;5042914;28;20186;-85
2023/12/24 07:18:35;;;;;;;9.35;4.25;;;-2.00;99.90;;;;;;5050239;28;20186;-87
2023/12/24 07:21:03;;;;;;;7.30;3.03;;;-2.00;99.90;;;;;;5051620;28;20177;-88
2023/12/24 07:23:31;;;;;;;7.93;3.10;;;-2.00;99.90;;;;;;5050186;28;20197;-87
2023/12/24 07:25:58;;;;;;;10.10;3.90;;;-1.90;99.90;;;;;;5050085;28;20228;-85
2023/12/24 07:28:25;;;;;;;7.88;3.10;;;-1.90;99.90;;;;;;5051629;28;20200;-88
2023/12/24 07:30:53;;;;;;;9.23;3.28;;;-1.90;99.90;;;;;;5051591;28;20562;-86
2023/12/24 07:33:20;;;;;;;8.93;3.55;;;-1.90;99.90;;;;;;5050105;28;20203;-87
2023/12/24 07:35:48;;;;;;;9.57;3.70;;;-1.90;99.90;;;;;;5051204;28;20192;-84
2023/12/24 07:38:16;;;;;;;7.50;3.10;;;-1.80;99.90;;;;;;5033261;28;20186;-86
2023/12/24 07:40:43;;;;;;;10.70;3.75;;;-1.80;99.90;;;;;;5049353;28;20197;-86
2023/12/24 07:43:11;;;;;;;8.52;3.63;;;-1.80;99.90;;;;;;5029935;28;20394;-87
2023/12/24 07:45:41;;;;;;;6.68;2.70;;;-1.70;99.90;;;;;;5046477;28;20660;-86
2023/12/24 07:48:11;;;;;;;5.88;3.13;;;-1.70;99.90;;;;;;5046203;28;20174;-86
2023/12/24 07:50:38;;;;;;;7.78;3.20;;;-1.70;99.90;;;;;;5033601;28;20293;-87
2023/12/24 07:53:06;;;;;;;6.43;2.60;;;-1.70;99.90;;;;;;5047924;28;20214;-86
2023/12/24 07:55:33;;;;;;;8.32;3.10;;;-1.70;99.90;;;;;;5036515;28;20193;-87
2023/12/24 07:58:01;;;;;;;5.05;2.53;;;-1.70;99.90;;;;;;5036750;28;20649;-87
2023/12/24 08:00:29;;;;;;;10.30;3.15;;;-1.70;99.90;;;;;;5040678;28;20235;-87
2023/12/24 08:02:56;;;;;;;6.40;3.15;;;-1.60;99.90;;;;;;5057868;28;20271;-86
2023/12/24 08:05:24;;;;;;;6.97;3.33;;;-1.60;99.90;;;;;;5036551;28;20773;-86
2023/12/24 08:07:52;;;;;;;5.20;2.97;;;-1.50;99.90;;;;;;5064847;28;20209;-86
2023/12/24 08:10:20;;;;;;;6.95;2.60;;;-1.50;99.90;;;;;;5050623;28;20196;-86
2023/12/24 08:12:47;;;;;;;6.57;2.30;;;-1.50;99.90;;;;;;5049189;28;20302;-86
2023/12/24 08:15:21;;;;;;;4.97;2.45;;;-1.50;99.90;;;;;;5050860;28;20264;-86
2023/12/24 08:17:49;;;;;;;6.20;2.67;;;-1.40;99.90;;;;;;5065135;28;20177;-85
2023/12/24 08:20:21;;;;;;;5.38;2.33;;;-1.30;99.90;;;;;;5049557;28;20188;-86
2023/12/24 08:22:49;;;;;;;6.40;2.17;;;-1.30;99.90;;;;;;5050622;28;20651;-87
2023/12/24 08:25:17;;;;;;;10.65;2.30;;;-1.20;99.90;;;;;;5065685;28;20235;-86
2023/12/24 08:27:45;;;;;;;3.30;1.98;;;-1.20;99.90;;;;;;5065281;28;20197;-86
2023/12/24 08:30:13;;;;;;;5.78;1.83;;;-1.20;99.90;;;;;;5050017;28;20188;-86
2023/12/24 08:32:40;;;;;;;5.25;2.30;;;-1.20;99.90;;;;;;5047291;28;20229;-84
2023/12/24 08:35:08;;;;;;;7.40;2.20;;;-1.20;99.90;;;;;;5031464;28;20717;-88
2023/12/24 08:37:36;;;;;;;4.78;1.77;;;-1.20;99.90;;;;;;5046697;28;20639;-88
2023/12/24 08:40:04;;;;;;;4.43;2.05;;;-1.20;99.90;;;;;;5031526;28;20181;-89
2023/12/24 08:42:32;;;;;;;3.42;1.80;;;-1.10;99.90;;;;;;5046903;28;20190;-88
2023/12/24 08:44:59;;;;;;;4.57;2.10;;;-1.00;99.90;;;;;;5031269;28;20194;-86
2023/12/24 08:47:27;;;;;;;4.72;2.00;;;-1.10;99.90;;;;;;5046629;28;20273;-89
2023/12/24 08:49:54;;;;;;;5.38;2.20;;;-1.10;99.90;;;;;;5031228;28;20182;-88
2023/12/24 08:52:22;;;;;;;5.55;2.05;;;-1.00;99.90;;;;;;5029958;28;20643;-88
2023/12/24 08:54:50;;;;;;;4.65;2.25;;;-1.00;99.90;;;;;;5031007;28;20186;-88
2023/12/24 08:57:17;;;;;;;6.05;2.53;;;-1.00;99.90;;;;;;5029739;28;20244;-88
2023/12/24 08:59:45;;;;;;;3.75;1.70;;;-1.00;99.90;;;;;;5029902;28;20339;-89
2023/12/24 09:02:12;;;;;;;4.25;1.88;;;-0.90;99.90;;;;;;5013152;28;20698;-88
2023/12/24 09:04:40;;;;;;;5.00;1.73;;;-0.90;99.90;;;;;;5046373;28;20985;-88
2023/12/24 09:07:07;;;;;;;3.42;1.90;;;-0.90;99.90;;;;;;5029003;28;20204;-89
2023/12/24 09:09:35;;;;;;;3.97;1.70;;;-0.90;99.90;;;;;;5029040;28;20189;-87
2023/12/24 09:12:03;;;;;;;3.65;1.63;;;-0.80;99.90;;;;;;5045220;28;20233;-87
2023/12/24 09:14:31;;;;;;;4.55;1.90;;;-0.80;99.90;;;;;;5030467;28;20188;-88
2023/12/24 09:16:59;;;;;;;5.20;1.30;;;-0.70;99.90;;;;;;5029437;28;20793;-89
2023/12/24 09:19:27;;;;;;;2.08;1.25;;;-0.70;99.90;;;;;;5012715;28;20190;-87
2023/12/24 09:21:55;;;;;;;3.67;1.90;;;-0.70;99.90;;;;;;5030251;28;20674;-87
2023/12/24 09:24:22;;;;;;;3.00;1.23;;;-0.60;99.90;;;;;;5029075;28;20888;-88
2023/12/24 09:26:50;;;;;;;2.30;1.40;;;-0.60;99.90;;;;;;5034442;28;20558;-89
2023/12/24 09:29:21;;;;;;;3.58;1.38;;;-0.60;99.90;;;;;;5049969;28;20177;-88
2023/12/24 09:31:49;;;;;;;4.18;1.38;;;-0.60;99.90;;;;;;5053014;28;20196;-88
2023/12/24 09:34:16;;;;;;;4.75;1.83;;;-0.60;99.90;;;;;;5028719;28;20587;-88
2023/12/24 09:36:44;;;;;;;3.10;1.20;;;-0.60;99.90;;;;;;5043812;28;20193;-87
2023/12/24 09:39:12;;;;;;;1.80;0.98;;;-0.60;99.90;;;;;;5065624;28;20215;-88
2023/12/24 09:41:39;;;;;;;3.33;1.40;;;-0.60;99.90;;;;;;5032334;28;20196;-88
2023/12/24 09:44:08;;;;;;;4.03;1.40;;;-0.60;99.90;;;;;;5065295;28;20189;-88
2023/12/24 09:46:35;;;;;;;1.52;1.00;;;-0.50;99.90;;;;;;5048667;28;20185;-89
2023/12/24 09:49:03;;;;;;;3.35;0.98;;;-0.50;99.90;;;;;;5048514;28;20193;-88
2023/12/24 09:51:37;;;;;;;4.07;1.33;;;-0.40;99.90;;;;;;5030713;28;20209;-87
2023/12/24 09:54:05;;;;;;;4.03;1.27;;;-0.40;99.90;;;;;;5029539;28;20190;-87
2023/12/24 09:56:32;;;;;;;5.70;1.52;;;-0.40;99.90;;;;;;5011226;28;20248;-87
2023/12/24 09:59:00;;;;;;;2.30;1.00;;;-0.50;99.90;;;;;;5027812;28;20200;-87
2023/12/24 10:01:44;;;;;;;2.10;1.00;;;-0.60;99.90;;;;;;5029359;28;20197;-88
2023/12/24 10:04:14;;;;;;;2.67;1.00;;;-0.70;99.90;;;;;;5027671;28;20247;-88
2023/12/24 10:06:53;;;;;;;1.42;0.80;;;-0.70;99.90;;;;;;5029563;28;20197;-87
2023/12/24 10:09:23;;;;;;;5.05;1.27;;;-0.80;99.90;;;;;;5029512;28;20175;-87
2023/12/24 10:12:18;;;;;;;1.35;0.85;;;-0.70;99.90;;;;;;5044460;28;20230;-87
2023/12/24 10:14:57;;;;;;;4.80;1.20;;;-0.70;99.90;;;;;;5042614;28;20200;-88
2023/12/24 10:17:29;;;;;;;2.45;0.90;;;-0.80;99.90;;;;;;5028580;28;20189;-87
2023/12/24 10:19:58;;;;;;;2.72;0.98;;;-0.70;99.90;;;;;;5029743;28;20182;-88
2023/12/24 10:22:26;;;;;;;2.22;1.17;;;-0.70;99.90;;;;;;5045130;28;20515;-88
2023/12/24 10:25:14;;;;;;;2.90;1.35;;;-0.70;99.90;;;;;;5044960;28;20193;-89
2023/12/24 10:27:42;;;;;;;2.38;0.80;;;-0.60;99.90;;;;;;5029771;28;20170;-88
2023/12/24 10:30:12;;;;;;;2.00;1.08;;;-0.60;99.90;;;;;;5044819;28;20700;-88
2023/12/24 10:32:43;;;;;;;2.40;1.00;;;-0.60;99.90;;;;;;5030325;28;20218;-90
2023/12/24 10:35:20;;;;;;;1.35;1.00;;;-0.60;99.90;;;;;;5029011;28;20197;-88
2023/12/24 10:37:48;;;;;;;1.83;1.00;;;-0.60;99.90;;;;;;5028930;28;20366;-89
2023/12/24 10:40:16;;;;;;;2.53;1.00;;;-0.50;99.90;;;;;;5030318;28;20656;-88
2023/12/24 10:42:43;;;;;;;3.85;1.13;;;-0.50;99.90;;;;;;5033289;28;20178;-89
2023/12/24 10:45:11;;;;;;;3.53;1.38;;;-0.50;99.90;;;;;;5067852;28;20193;-89
2023/12/24 10:47:40;;;;;;;2.20;1.00;;;-0.50;99.90;;;;;;5052092;28;20216;-89
2023/12/24 10:50:08;;;;;;;3.08;1.15;;;-0.50;99.90;;;;;;5051893;28;20197;-88
2023/12/24 10:52:36;;;;;;;1.67;0.98;;;-0.50;99.90;;;;;;5068289;28;20232;-89
2023/12/24 10:55:04;;;;;;;5.28;0.90;;;-0.60;99.90;;;;;;5067905;28;20662;-88
2023/12/24 10:58:00;;;;;;;4.68;1.17;;;-0.60;99.90;;;;;;5052383;28;20196;-88
2023/12/24 11:00:28;;;;;;;2.60;1.27;;;-0.60;99.90;;;;;;5040138;28;20639;-89
2023/12/24 11:02:56;;;;;;;3.03;1.10;;;-0.60;99.90;;;;;;5052068;28;20659;-89
2023/12/24 11:05:46;;;;;;;2.00;1.10;;;-0.60;99.90;;;;;;5052565;28;20181;-89
2023/12/24 11:08:24;;;;;;;3.97;1.05;;;-0.60;99.90;;;;;;5042726;28;20205;-88
2023/12/24 11:10:55;;;;;;;3.38;1.05;;;-0.60;99.90;;;;;;5038056;28;20203;-89
2023/12/24 11:13:32;;;;;;;2.08;1.00;;;-0.60;99.90;;;;;;5035360;28;20216;-89
2023/12/24 11:16:03;;;;;;;2.30;0.80;;;-0.60;99.90;;;;;;5053649;28;20615;-89
2023/12/24 11:18:47;;;;;;;2.10;0.90;;;-0.60;99.90;;;;;;5036566;28;20185;-90
2023/12/24 11:21:19;;;;;;;3.20;1.13;;;-0.60;99.90;;;;;;5048311;28;20178;-89
2023/12/24 11:24:10;;;;;;;1.90;1.10;;;-0.60;99.90;;;;;;5043107;28;20509;-87
2023/12/24 11:26:38;;;;;;;3.88;1.15;;;-0.70;99.90;;;;;;5024663;28;20930;-88
2023/12/24 11:29:37;;;;;;;2.25;0.93;;;-0.70;99.90;;;;;;5050001;28;20289;-88
2023/12/24 11:32:24;;;;;;;3.88;1.08;;;-0.70;99.90;;;;;;5011679;28;20679;-89
2023/12/24 11:34:53;;;;;;;3.80;1.00;;;-0.70;99.90;;;;;;5029683;28;20768;-87
2023/12/24 11:37:35;;;;;;;3.10;1.30;;;-0.70;99.90;;;;;;5050941;28;20298;-88
2023/12/24 11:40:17;;;;;;;2.72;1.10;;;-0.70;99.90;;;;;;5050037;28;20743;-88
2023/12/24 11:42:48;;;;;;;2.40;1.00;;;-0.70;99.90;;;;;;5060577;28;20706;-89
2023/12/24 11:45:20;;;;;;;0.98;0.70;;;-0.80;99.90;;;;;;5050619;28;20169;-88
2023/12/24 11:47:49;;;;;;;2.53;1.00;;;-0.80;99.90;;;;;;5050185;28;20185;-87
2023/12/24 11:50:17;;;;;;;3.95;1.00;;;-0.80;99.90;;;;;;5050262;28;20185;-87
2023/12/24 11:52:47;;;;;;;3.72;1.20;;;-0.80;99.90;;;;;;5037093;28;20200;-88
2023/12/24 11:55:15;;;;;;;5.57;1.33;;;-0.80;99.90;;;;;;5046611;28;20182;-87
2023/12/24 11:57:43;;;;;;;5.35;1.52;;;-0.90;99.90;;;;;;5031385;28;20193;-87
2023/12/24 12:00:27;;;;;;;2.85;1.35;;;-0.90;99.90;;;;;;5029934;28;20197;-86
2023/12/24 12:02:59;;;;;;;2.55;1.08;;;-0.90;99.90;;;;;;5046573;28;20178;-87
2023/12/24 12:05:29;;;;;;;2.58;1.13;;;-1.00;99.90;;;;;;5034352;28;20185;-87
2023/12/24 12:07:57;;;;;;;2.47;1.08;;;-0.90;99.90;;;;;;5048564;28;20189;-86
2023/12/24 12:10:25;;;;;;;2.47;1.20;;;-0.90;99.90;;;;;;5032801;28;20251;-88
2023/12/24 12:12:52;;;;;;;4.28;1.30;;;-0.90;99.90;;;;;;5049028;28;20283;-85
2023/12/24 12:15:20;;;;;;;4.10;1.27;;;-1.00;99.90;;;;;;5049146;28;20305;-86
2023/12/24 12:17:49;;;;;;;3.53;1.50;;;-1.00;99.90;;;;;;5049117;28;20190;-86
2023/12/24 12:20:18;;;;;;;3.30;1.70;;;-1.00;99.90;;;;;;5049370;28;20208;-87
2023/12/24 12:22:47;;;;;;;4.40;1.60;;;-0.90;99.90;;;;;;5049329;28;20187;-87
2023/12/24 12:25:15;;;;;;;3.13;1.38;;;-0.90;99.90;;;;;;5050378;28;20178;-87
2023/12/24 12:27:43;;;;;;;7.38;1.27;;;-0.90;99.90;;;;;;5048972;28;20191;-87
2023/12/24 12:30:14;;;;;;;4.68;1.77;;;-0.90;99.90;;;;;;5049052;28;20173;-87
2023/12/24 12:32:42;;;;;;;3.45;1.83;;;-0.90;99.90;;;;;;5049197;28;20225;-87
2023/12/24 12:35:10;;;;;;;5.65;1.80;;;-0.90;99.90;;;;;;5050275;28;20722;-87
2023/12/24 12:37:38;;;;;;;5.57;1.77;;;-0.90;99.90;;;;;;5049101;28;20189;-86
2023/12/24 12:40:07;;;;;;;3.75;1.73;;;-0.90;99.90;;;;;;5050271;28;20264;-86
2023/12/24 12:42:35;;;;;;;3.58;1.90;;;-0.90;99.90;;;;;;5048941;28;20189;-87
2023/12/24 12:45:11;;;;;;;6.32;2.10;;;-0.90;99.90;;;;;;5050115;28;20536;-87
2023/12/24 12:47:39;;;;;;;3.50;1.83;;;-0.90;99.90;;;;;;5049076;28;20663;-87
2023/12/24 12:50:07;;;;;;;5.18;1.75;;;-0.90;99.90;;;;;;5048330;28;20599;-87
2023/12/24 12:52:35;;;;;;;3.03;1.42;;;-0.90;99.90;;;;;;5046042;28;20202;-86